Time;durP1;ratioP1;P1;durP2;ratioP2;P2;SDS_P1;SDS_P2;PMS_P1;PMS_P2;Temp;Humidity;BMP_temperature;BMP_pressure;BME280_temperature;BME280_humidity;BME280_pressure;Samples;Min_cycle;Max_cycle;Signal;HPM_P1;HPM_P2
2022/08/15 00:00:20;;;;;;;4.78;4.47;;;29.70;44.30;30.80;99596.00;;;;5025485;28;20179;-45
2022/08/15 00:02:47;;;;;;;4.88;4.47;;;29.70;44.60;30.70;99598.00;;;;5025468;28;20530;-45
2022/08/15 00:05:20;;;;;;;5.20;4.80;;;29.60;44.60;30.70;99592.00;;;;5026554;28;20175;-45
2022/08/15 00:07:46;;;;;;;4.80;4.50;;;29.70;44.70;30.70;99584.00;;;;5025492;28;20491;-45
2022/08/15 00:10:12;;;;;;;4.93;4.53;;;29.70;44.70;30.70;99596.00;;;;5025421;28;20261;-46
2022/08/15 00:12:38;;;;;;;4.95;4.53;;;29.60;44.70;30.60;99598.00;;;;5025162;28;20167;-45
2022/08/15 00:15:11;;;;;;;4.78;4.47;;;29.70;44.40;30.60;99604.00;;;;5025229;28;20602;-45
2022/08/15 00:17:37;;;;;;;4.80;4.40;;;29.60;44.20;30.60;99597.00;;;;5024788;28;20290;-45
2022/08/15 00:20:05;;;;;;;4.60;4.30;;;29.70;44.00;30.60;99589.00;;;;5025180;28;20164;-45
2022/08/15 00:22:31;;;;;;;4.57;4.22;;;29.70;43.90;30.60;99590.00;;;;5025128;28;20194;-45
2022/08/15 00:24:57;;;;;;;4.50;4.20;;;29.70;43.90;30.60;99583.00;;;;5028085;28;20197;-45
2022/08/15 00:27:24;;;;;;;4.35;4.00;;;29.70;43.70;30.60;99589.00;;;;5028362;28;20248;-45
2022/08/15 00:29:51;;;;;;;4.68;4.30;;;29.70;43.70;30.60;99596.00;;;;5028926;28;20210;-45
2022/08/15 00:32:19;;;;;;;4.80;4.40;;;29.70;43.70;30.60;99602.00;;;;5044349;28;20182;-45
2022/08/15 00:34:46;;;;;;;4.43;4.13;;;29.70;43.30;30.60;99590.00;;;;5028783;28;20179;-45
2022/08/15 00:37:12;;;;;;;4.63;4.22;;;29.70;43.30;30.60;99590.00;;;;5028002;28;20199;-45
2022/08/15 00:39:38;;;;;;;5.07;4.47;;;29.70;43.40;30.60;99587.00;;;;5028439;28;20171;-45
2022/08/15 00:42:07;;;;;;;4.93;4.53;;;29.70;43.30;30.60;99602.00;;;;5028650;28;20186;-45
2022/08/15 00:44:40;;;;;;;4.38;4.07;;;29.70;43.30;30.50;99592.00;;;;5028516;28;20191;-45
2022/08/15 00:47:15;;;;;;;4.30;4.00;;;29.70;43.30;30.60;99571.00;;;;5028317;28;20190;-45
2022/08/15 00:49:41;;;;;;;4.82;4.43;;;29.70;43.30;30.50;99592.00;;;;5043154;28;20174;-47
2022/08/15 00:52:27;;;;;;;4.28;3.97;;;29.70;43.40;30.50;99597.00;;;;5043702;28;20167;-45
2022/08/15 00:54:56;;;;;;;4.40;4.10;;;29.70;43.40;30.50;99575.00;;;;5043757;28;20312;-45
2022/08/15 00:57:36;;;;;;;4.30;4.00;;;29.70;42.90;30.50;99587.00;;;;5042999;28;20573;-45
2022/08/15 01:00:20;;;;;;;4.82;4.50;;;29.60;43.00;30.50;99595.00;;;;5042694;28;20194;-44
2022/08/15 01:02:46;;;;;;;4.50;4.20;;;29.70;42.80;30.40;99595.00;;;;5028493;28;20166;-44
2022/08/15 01:05:13;;;;;;;4.55;4.25;;;29.70;42.90;30.40;99599.00;;;;5043347;28;20533;-44
2022/08/15 01:07:39;;;;;;;4.85;4.50;;;29.60;42.90;30.40;99610.00;;;;5029765;28;20198;-45
2022/08/15 01:10:06;;;;;;;4.78;4.47;;;29.60;43.00;30.40;99602.00;;;;5030276;28;20691;-46
2022/08/15 01:12:32;;;;;;;4.60;4.20;;;29.40;43.30;30.40;99605.00;;;;5028687;28;20353;-45
2022/08/15 01:15:03;;;;;;;4.72;4.43;;;29.40;43.60;30.30;99618.00;;;;5044871;28;20543;-45
2022/08/15 01:17:29;;;;;;;4.82;4.53;;;29.40;43.90;30.30;99618.00;;;;5044864;28;20229;-45
2022/08/15 01:20:05;;;;;;;4.72;4.32;;;29.40;44.10;30.30;99622.00;;;;5043777;28;20464;-45
2022/08/15 01:22:34;;;;;;;4.45;4.15;;;29.40;44.20;30.30;99632.00;;;;5028322;28;20747;-45
2022/08/15 01:25:07;;;;;;;4.45;4.15;;;29.40;44.30;30.30;99625.00;;;;5027947;28;20183;-45
2022/08/15 01:27:56;;;;;;;4.57;4.20;;;29.40;44.30;30.20;99620.00;;;;5042491;28;20194;-45
2022/08/15 01:30:29;;;;;;;4.40;4.10;;;29.40;44.20;30.20;99612.00;;;;5041260;28;20220;-45
2022/08/15 01:32:55;;;;;;;4.90;4.50;;;29.40;43.80;30.20;99621.00;;;;5042722;28;20155;-46
2022/08/15 01:35:21;;;;;;;5.20;4.70;;;29.40;43.60;30.20;99622.00;;;;5042338;28;20178;-45
2022/08/15 01:37:50;;;;;;;5.00;4.60;;;29.40;43.40;30.20;99613.00;;;;5027711;28;20568;-46
2022/08/15 01:40:39;;;;;;;5.25;4.85;;;29.40;43.60;30.20;99620.00;;;;5027360;28;20456;-45
2022/08/15 01:43:05;;;;;;;5.32;4.40;;;29.30;43.80;30.10;99623.00;;;;5041238;28;20166;-45
2022/08/15 01:45:32;;;;;;;4.85;4.55;;;29.30;44.20;30.10;99611.00;;;;5042255;28;20567;-45
2022/08/15 01:48:09;;;;;;;4.90;4.50;;;29.30;45.00;30.10;99613.00;;;;5042132;28;20506;-46
2022/08/15 01:50:44;;;;;;;4.68;4.38;;;29.30;45.40;30.10;99610.00;;;;5041592;28;20186;-45
2022/08/15 01:53:54;;;;;;;4.97;4.68;;;29.30;45.50;30.10;99618.00;;;;5027803;28;20155;-46
2022/08/15 01:56:31;;;;;;;4.80;4.40;;;29.30;45.40;30.00;99622.00;;;;5036554;28;20190;-45
2022/08/15 01:59:03;;;;;;;4.97;4.57;;;29.30;45.50;30.00;99619.00;;;;5041236;28;20155;-46
2022/08/15 02:01:47;;;;;;;4.90;4.53;;;29.20;45.30;30.00;99609.00;;;;5041970;28;20230;-45
2022/08/15 02:04:15;;;;;;;5.43;5.00;;;29.20;45.60;30.00;99613.00;;;;5041152;28;20186;-45
2022/08/15 02:06:42;;;;;;;4.95;4.65;;;29.10;45.90;30.00;99620.00;;;;5027116;28;20643;-45
2022/08/15 02:09:11;;;;;;;4.90;4.50;;;29.10;46.10;30.00;99623.00;;;;5026903;28;20224;-45
2022/08/15 02:11:37;;;;;;;5.40;4.95;;;29.10;46.30;29.90;99628.00;;;;5026566;28;20254;-45
2022/08/15 02:14:03;;;;;;;5.18;4.85;;;29.10;47.10;29.90;99622.00;;;;5027061;28;20639;-45
2022/08/15 02:16:33;;;;;;;4.85;4.50;;;29.10;46.30;29.90;99623.00;;;;5026456;28;20775;-45
2022/08/15 02:18:59;;;;;;;4.75;4.45;;;29.10;46.10;29.90;99636.00;;;;5041228;28;20171;-45
2022/08/15 02:21:26;;;;;;;5.15;4.75;;;29.10;46.30;29.90;99618.00;;;;5026704;28;20306;-46
2022/08/15 02:23:51;;;;;;;5.07;4.68;;;29.10;46.70;29.90;99633.00;;;;5026764;28;20167;-45
2022/08/15 02:26:17;;;;;;;4.90;4.43;;;29.10;46.10;29.90;99617.00;;;;5026453;28;20181;-44
2022/08/15 02:28:44;;;;;;;5.10;4.70;;;29.10;46.20;29.80;99620.00;;;;5026552;28;20167;-46
2022/08/15 02:31:15;;;;;;;5.28;4.88;;;29.10;46.00;29.80;99613.00;;;;5026808;28;20175;-47
2022/08/15 02:33:45;;;;;;;5.13;4.72;;;29.10;45.80;29.80;99603.00;;;;5041688;28;20580;-44
2022/08/15 02:36:13;;;;;;;5.03;4.63;;;29.00;45.80;29.80;99617.00;;;;5041585;28;20175;-45
2022/08/15 02:38:39;;;;;;;5.38;4.97;;;29.00;46.00;29.80;99605.00;;;;5026669;28;20171;-45
2022/08/15 02:41:05;;;;;;;4.93;4.63;;;29.00;46.00;29.80;99609.00;;;;5041825;28;20662;-46
2022/08/15 02:43:30;;;;;;;5.22;4.82;;;29.00;46.60;29.80;99573.00;;;;5041917;28;20225;-45
2022/08/15 02:45:59;;;;;;;5.22;4.82;;;28.90;46.60;29.70;99612.00;;;;5026495;28;20186;-45
2022/08/15 02:48:25;;;;;;;5.35;4.95;;;28.90;47.30;29.70;99622.00;;;;5026405;28;20199;-45
2022/08/15 02:50:53;;;;;;;5.13;4.72;;;28.90;46.90;29.70;99613.00;;;;5026284;28;20249;-46
2022/08/15 02:53:20;;;;;;;5.00;4.60;;;29.00;46.60;29.70;99598.00;;;;5041361;28;20182;-45
2022/08/15 02:55:47;;;;;;;4.88;4.57;;;28.90;46.90;29.70;99606.00;;;;5026322;28;20185;-45
2022/08/15 02:58:13;;;;;;;4.93;4.63;;;28.90;46.70;29.70;99599.00;;;;5025828;28;20694;-45
2022/08/15 03:00:41;;;;;;;5.13;4.80;;;28.90;46.70;29.70;99606.00;;;;5026223;28;20570;-45
2022/08/15 03:03:12;;;;;;;4.85;4.55;;;28.90;47.00;29.60;99615.00;;;;5026082;28;20171;-43
2022/08/15 03:05:40;;;;;;;5.25;4.85;;;28.70;47.30;29.60;99608.00;;;;5026277;28;20169;-45
2022/08/15 03:08:06;;;;;;;5.60;5.20;;;28.70;47.60;29.60;99608.00;;;;5026193;28;20293;-45
2022/08/15 03:10:31;;;;;;;5.10;4.80;;;28.70;47.40;29.50;99602.00;;;;5026186;28;20270;-45
2022/08/15 03:13:07;;;;;;;5.30;4.88;;;28.70;47.60;29.50;99609.00;;;;5025893;28;20716;-45
2022/08/15 03:15:52;;;;;;;5.45;4.95;;;28.70;47.20;29.50;99610.00;;;;5041475;28;20167;-46
2022/08/15 03:18:20;;;;;;;5.38;4.97;;;28.70;47.70;29.50;99606.00;;;;5025585;28;20251;-44
2022/08/15 03:20:46;;;;;;;5.10;4.72;;;28.70;47.40;29.50;99589.00;;;;5041247;28;20541;-44
2022/08/15 03:23:12;;;;;;;5.00;4.55;;;28.70;47.30;29.50;99598.00;;;;5041038;28;20225;-44
2022/08/15 03:25:40;;;;;;;5.20;4.85;;;28.70;47.30;29.50;99603.00;;;;5026006;28;20174;-44
2022/08/15 03:28:06;;;;;;;4.88;4.57;;;28.70;47.20;29.50;99599.00;;;;5025427;28;20190;-44
2022/08/15 03:30:32;;;;;;;4.90;4.50;;;28.70;47.30;29.50;99602.00;;;;5025789;28;20869;-45
2022/08/15 03:32:58;;;;;;;4.90;4.50;;;28.70;47.10;29.50;99596.00;;;;5025682;28;20785;-45
2022/08/15 03:35:28;;;;;;;6.05;5.10;;;28.70;47.70;29.40;99591.00;;;;5025599;28;20205;-46
2022/08/15 03:37:54;;;;;;;4.88;4.57;;;28.70;47.40;29.40;99591.00;;;;5025269;28;20811;-45
2022/08/15 03:40:20;;;;;;;4.90;4.60;;;28.60;47.50;29.40;99593.00;;;;5025606;28;20159;-45
2022/08/15 03:42:53;;;;;;;5.13;4.68;;;28.60;47.60;29.40;99584.00;;;;5025769;28;20718;-44
2022/08/15 03:45:20;;;;;;;4.85;4.55;;;28.60;47.50;29.40;99566.00;;;;5025399;28;20210;-44
2022/08/15 03:47:45;;;;;;;6.00;5.55;;;28.60;47.60;29.40;99576.00;;;;5040457;28;20345;-44
2022/08/15 03:50:13;;;;;;;5.60;5.13;;;28.60;47.60;29.40;99574.00;;;;5025758;28;20709;-44
2022/08/15 03:52:56;;;;;;;5.20;4.80;;;28.60;47.60;29.30;99569.00;;;;5040486;28;20173;-44
2022/08/15 03:55:24;;;;;;;5.30;4.90;;;28.50;48.10;29.30;99578.00;;;;5024883;28;20160;-45
2022/08/15 03:57:50;;;;;;;5.82;5.32;;;28.50;48.30;29.30;99570.00;;;;5039931;28;20870;-44
2022/08/15 04:00:18;;;;;;;5.00;4.60;;;28.40;48.20;29.20;99566.00;;;;5044644;28;20190;-45
2022/08/15 04:02:44;;;;;;;5.28;4.88;;;28.50;48.00;29.20;99555.00;;;;5026679;28;20213;-44
2022/08/15 04:05:11;;;;;;;5.30;4.88;;;28.50;48.00;29.20;99568.00;;;;5028426;28;20229;-45
2022/08/15 04:07:37;;;;;;;5.07;4.78;;;28.50;48.30;29.20;99564.00;;;;5044140;28;20221;-45
2022/08/15 04:10:09;;;;;;;5.50;5.00;;;28.40;48.80;29.20;99567.00;;;;5028756;28;20155;-45
2022/08/15 04:12:38;;;;;;;5.00;4.60;;;28.30;49.00;29.10;99566.00;;;;5029332;28;20262;-45
2022/08/15 04:15:07;;;;;;;5.15;4.75;;;28.20;48.90;29.10;99567.00;;;;5029080;28;20179;-46
2022/08/15 04:17:33;;;;;;;5.18;4.78;;;28.20;48.70;29.10;99569.00;;;;5028244;28;20403;-45
2022/08/15 04:19:59;;;;;;;6.47;4.70;;;28.30;48.70;29.10;99576.00;;;;5028494;28;20163;-45
2022/08/15 04:22:41;;;;;;;5.47;4.90;;;28.30;48.40;29.10;99562.00;;;;5043926;28;20225;-45
2022/08/15 04:25:20;;;;;;;6.25;4.80;;;28.30;48.30;29.00;99562.00;;;;5044588;28;20250;-45
2022/08/15 04:27:51;;;;;;;5.72;5.10;;;28.30;48.20;29.00;99565.00;;;;5030314;28;20198;-45
2022/08/15 04:30:17;;;;;;;4.88;4.57;;;28.30;48.90;29.10;99568.00;;;;5028920;28;20198;-46
2022/08/15 04:32:43;;;;;;;4.93;4.53;;;28.30;48.10;29.00;99569.00;;;;5027993;28;20630;-45
2022/08/15 04:35:10;;;;;;;5.40;5.00;;;28.40;47.80;29.00;99563.00;;;;5028567;28;20183;-45
2022/08/15 04:37:37;;;;;;;5.15;4.75;;;28.30;48.00;29.00;99577.00;;;;5028040;28;20198;-45
2022/08/15 04:40:10;;;;;;;5.60;5.10;;;28.30;48.40;29.00;99586.00;;;;5028159;28;20252;-46
2022/08/15 04:43:05;;;;;;;4.90;4.55;;;28.30;48.30;29.00;99583.00;;;;5028537;28;20244;-44
2022/08/15 04:45:32;;;;;;;5.43;4.93;;;28.30;48.70;29.00;99597.00;;;;5023327;28;20198;-45
2022/08/15 04:48:02;;;;;;;5.15;4.75;;;28.20;48.50;29.00;99592.00;;;;5027768;28;20191;-44
2022/08/15 04:50:34;;;;;;;5.25;4.65;;;28.30;48.40;29.00;99592.00;;;;5028090;28;20464;-44
2022/08/15 04:53:00;;;;;;;5.10;4.60;;;28.20;48.60;29.00;99602.00;;;;5024406;28;20721;-44
2022/08/15 04:55:26;;;;;;;5.50;5.00;;;28.20;48.90;28.90;99594.00;;;;5026953;28;20262;-44
2022/08/15 04:57:52;;;;;;;7.15;5.00;;;28.20;48.70;28.90;99607.00;;;;5025361;28;20253;-45
2022/08/15 05:00:21;;;;;;;5.28;4.78;;;28.20;48.60;28.90;99594.00;;;;5028149;28;20634;-43
2022/08/15 05:02:57;;;;;;;5.50;5.10;;;28.20;48.60;28.90;99604.00;;;;5029046;28;20550;-46
2022/08/15 05:05:23;;;;;;;5.20;4.80;;;28.20;48.90;28.90;99604.00;;;;5029015;28;20167;-45
2022/08/15 05:07:48;;;;;;;5.45;5.00;;;28.20;48.70;28.90;99605.00;;;;5028818;28;20191;-45
2022/08/15 05:10:14;;;;;;;5.07;4.65;;;28.20;48.70;28.90;99614.00;;;;5027144;28;20539;-45
2022/08/15 05:12:40;;;;;;;5.47;4.97;;;28.10;49.10;28.90;99615.00;;;;5028604;28;20801;-46
2022/08/15 05:15:07;;;;;;;5.18;4.78;;;28.20;48.70;28.90;99618.00;;;;5028431;28;20179;-45
2022/08/15 05:17:33;;;;;;;5.53;5.03;;;28.20;48.20;28.90;99615.00;;;;5027925;28;20231;-45
2022/08/15 05:19:58;;;;;;;8.43;5.43;;;28.20;48.10;28.90;99616.00;;;;5043354;28;20697;-44
2022/08/15 05:22:24;;;;;;;5.25;4.85;;;28.20;48.10;28.90;99615.00;;;;5028430;28;20537;-45
2022/08/15 05:24:50;;;;;;;5.25;4.85;;;28.20;48.30;28.90;99620.00;;;;5027053;28;20189;-44
2022/08/15 05:27:15;;;;;;;5.93;5.10;;;28.20;48.10;28.90;99615.00;;;;5027761;28;20261;-45
2022/08/15 05:29:42;;;;;;;6.25;5.53;;;28.20;48.10;28.90;99615.00;;;;5028113;28;20613;-44
2022/08/15 05:32:08;;;;;;;6.20;5.15;;;28.20;48.00;28.90;99602.00;;;;5028162;28;20163;-44
2022/08/15 05:34:34;;;;;;;5.57;5.03;;;28.20;48.00;28.80;99605.00;;;;5028141;28;20190;-43
2022/08/15 05:37:01;;;;;;;6.38;4.80;;;28.20;47.90;28.80;99609.00;;;;5028514;28;20203;-46
2022/08/15 05:39:28;;;;;;;5.18;4.65;;;28.20;48.50;28.80;99614.00;;;;5042867;28;20178;-45
2022/08/15 05:42:01;;;;;;;5.13;4.63;;;28.20;48.50;28.80;99617.00;;;;5026803;28;20148;-45
2022/08/15 05:44:56;;;;;;;5.57;5.07;;;28.20;48.60;28.80;99612.00;;;;5043262;28;20182;-45
2022/08/15 05:47:52;;;;;;;7.13;4.97;;;28.20;48.60;28.80;99622.00;;;;5006537;28;20306;-44
2022/08/15 05:50:48;;;;;;;5.53;5.03;;;28.10;48.30;28.80;99611.00;;;;5026774;28;20547;-44
2022/08/15 05:53:45;;;;;;;5.55;5.05;;;28.20;48.60;28.80;99627.00;;;;5027775;28;20166;-44
2022/08/15 05:57:09;;;;;;;5.22;4.72;;;28.20;48.40;28.80;99625.00;;;;5029040;28;20266;-44
2022/08/15 05:59:46;;;;;;;5.10;4.63;;;28.10;48.30;28.70;99616.00;;;;5026678;28;20195;-45
2022/08/15 06:02:57;;;;;;;4.68;4.38;;;28.20;48.00;28.70;99628.00;;;;5026206;28;20238;-43
2022/08/15 06:05:36;;;;;;;4.70;4.30;;;28.10;47.90;28.70;99629.00;;;;5019777;28;20183;-45
2022/08/15 06:08:08;;;;;;;5.55;4.40;;;28.10;47.60;28.70;99621.00;;;;5026241;28;20182;-46
2022/08/15 06:10:45;;;;;;;5.53;4.18;;;28.10;47.30;28.70;99625.00;;;;5026789;28;20163;-45
2022/08/15 06:13:36;;;;;;;4.90;4.50;;;28.10;47.80;28.70;99629.00;;;;5026295;28;20170;-45
2022/08/15 06:16:23;;;;;;;5.07;4.53;;;28.10;48.00;28.70;99619.00;;;;5027062;28;20173;-45
2022/08/15 06:18:50;;;;;;;4.78;4.38;;;28.00;48.40;28.60;99636.00;;;;5026814;28;20159;-45
2022/08/15 06:22:02;;;;;;;5.68;4.47;;;28.00;48.30;28.70;99639.00;;;;5026692;28;20792;-45
2022/08/15 06:24:40;;;;;;;5.05;4.40;;;28.00;48.30;28.60;99629.00;;;;5027197;28;20229;-46
2022/08/15 06:27:37;;;;;;;4.95;4.55;;;28.00;48.30;28.60;99645.00;;;;5025986;28;20190;-45
2022/08/15 06:30:11;;;;;;;5.05;4.40;;;28.00;48.10;28.60;99638.00;;;;5025793;28;20159;-45
2022/08/15 06:32:55;;;;;;;4.88;4.35;;;28.00;48.10;28.60;99642.00;;;;5042257;28;20522;-43
2022/08/15 06:35:55;;;;;;;5.53;4.63;;;28.00;48.20;28.60;99647.00;;;;5025812;28;20166;-44
2022/08/15 06:38:48;;;;;;;5.35;4.70;;;28.00;48.20;28.60;99642.00;;;;5026408;28;20237;-45
2022/08/15 06:41:30;;;;;;;4.72;4.32;;;28.00;48.20;28.60;99643.00;;;;5025919;28;20195;-44
2022/08/15 06:43:57;;;;;;;4.80;4.40;;;28.00;47.90;28.60;99642.00;;;;5009667;28;20155;-45
2022/08/15 06:46:27;;;;;;;6.88;4.40;;;28.00;48.00;28.60;99648.00;;;;5026433;28;20570;-45
2022/08/15 06:48:53;;;;;;;6.15;4.50;;;28.00;47.80;28.60;99659.00;;;;5024979;28;20799;-45
2022/08/15 06:51:19;;;;;;;6.60;4.50;;;28.00;47.90;28.60;99662.00;;;;5025612;28;20198;-45
2022/08/15 06:53:46;;;;;;;6.15;4.30;;;28.00;47.90;28.60;99661.00;;;;5025686;28;20175;-44
2022/08/15 06:56:41;;;;;;;5.18;4.40;;;28.00;47.70;28.60;99652.00;;;;5042129;28;20183;-45
2022/08/15 06:59:38;;;;;;;4.70;4.15;;;28.00;47.40;28.60;99665.00;;;;5010922;28;20191;-45
2022/08/15 07:02:19;;;;;;;4.45;4.05;;;28.00;47.30;28.50;99660.00;;;;5026605;28;20175;-45
2022/08/15 07:05:13;;;;;;;6.15;3.95;;;28.00;47.30;28.50;99648.00;;;;5026750;28;20155;-45
2022/08/15 07:08:11;;;;;;;4.13;3.72;;;28.00;47.30;28.50;99648.00;;;;5020320;28;20199;-45
2022/08/15 07:10:42;;;;;;;4.45;3.90;;;28.00;47.20;28.50;99653.00;;;;5025934;28;20159;-45
2022/08/15 07:13:14;;;;;;;3.83;3.53;;;28.00;47.30;28.50;99653.00;;;;5042164;28;20528;-45
2022/08/15 07:16:11;;;;;;;4.00;3.30;;;27.90;47.20;28.50;99649.00;;;;5025214;28;20732;-44
2022/08/15 07:18:44;;;;;;;6.22;3.97;;;27.90;47.50;28.50;99650.00;;;;5019185;28;20218;-45
2022/08/15 07:21:17;;;;;;;4.72;3.50;;;27.80;47.80;28.40;99647.00;;;;5024954;28;20241;-45
2022/08/15 07:24:01;;;;;;;4.68;3.50;;;27.70;48.00;28.40;99647.00;;;;5026203;28;20158;-45
2022/08/15 07:26:32;;;;;;;4.53;3.35;;;27.70;48.30;28.40;99644.00;;;;5026185;28;20766;-44
2022/08/15 07:28:59;;;;;;;4.53;3.33;;;27.60;48.40;28.30;99644.00;;;;5026004;28;20178;-45
2022/08/15 07:31:33;;;;;;;3.72;3.17;;;27.60;48.50;28.30;99647.00;;;;5044767;28;20178;-44
2022/08/15 07:34:22;;;;;;;3.92;3.00;;;27.50;48.40;28.30;99646.00;;;;5025730;28;20581;-45
2022/08/15 07:36:58;;;;;;;4.22;3.05;;;27.40;48.40;28.20;99660.00;;;;5026167;28;20636;-45
2022/08/15 07:39:39;;;;;;;6.60;3.20;;;27.50;48.60;28.20;99656.00;;;;5026053;28;20232;-45
2022/08/15 07:42:18;;;;;;;4.28;2.97;;;27.50;48.60;28.20;99653.00;;;;5026351;28;20665;-45
2022/08/15 07:44:59;;;;;;;3.30;3.00;;;27.50;48.80;28.20;99659.00;;;;5026416;28;20221;-45
2022/08/15 07:47:28;;;;;;;4.55;3.03;;;27.50;49.00;28.20;99661.00;;;;5025631;28;20190;-45
2022/08/15 07:50:24;;;;;;;3.40;3.00;;;27.50;49.00;28.20;99648.00;;;;5025965;28;20182;-45
2022/08/15 07:53:00;;;;;;;5.30;3.15;;;27.40;49.00;28.20;99665.00;;;;4985578;28;20182;-46
2022/08/15 07:55:26;;;;;;;4.63;3.20;;;27.40;49.20;28.10;99674.00;;;;4953239;28;20923;-44
2022/08/15 07:58:05;;;;;;;3.97;3.20;;;27.40;49.20;28.10;99677.00;;;;5019042;28;20210;-45
2022/08/15 08:00:34;;;;;;;5.63;3.40;;;27.40;49.40;28.10;99676.00;;;;5025254;28;20167;-46
2022/08/15 08:03:29;;;;;;;5.13;3.35;;;27.40;49.50;28.10;99669.00;;;;5025691;28;20205;-45
2022/08/15 08:06:31;;;;;;;3.83;3.10;;;27.30;49.50;28.10;99667.00;;;;5024106;28;20243;-45
2022/08/15 08:09:26;;;;;;;3.25;2.95;;;27.30;49.50;28.00;99670.00;;;;5023981;28;20642;-46
2022/08/15 08:12:30;;;;;;;3.45;3.17;;;27.30;49.50;28.00;99666.00;;;;5024350;28;20163;-44
2022/08/15 08:15:20;;;;;;;5.10;3.17;;;27.30;49.50;28.00;99679.00;;;;5005012;28;20194;-45
2022/08/15 08:18:08;;;;;;;4.10;3.05;;;27.40;49.60;28.00;99674.00;;;;5020034;28;20473;-46
2022/08/15 08:20:45;;;;;;;3.80;3.10;;;27.30;49.40;28.00;99690.00;;;;5025673;28;20198;-45
2022/08/15 08:23:28;;;;;;;6.82;3.60;;;27.30;49.40;28.00;99678.00;;;;5025958;28;20174;-45
2022/08/15 08:26:09;;;;;;;5.32;3.22;;;27.30;49.40;28.00;99685.00;;;;5021938;28;20305;-45
2022/08/15 08:28:51;;;;;;;4.13;3.53;;;27.30;49.60;27.90;99683.00;;;;5020163;28;20186;-44
2022/08/15 08:31:26;;;;;;;4.85;3.10;;;27.20;49.60;28.00;99672.00;;;;5039367;28;20163;-44
2022/08/15 08:34:25;;;;;;;7.32;3.40;;;27.30;49.70;28.00;99686.00;;;;5021147;28;20242;-46
2022/08/15 08:37:02;;;;;;;4.72;3.30;;;27.30;49.80;27.90;99689.00;;;;5003897;28;20207;-45
2022/08/15 08:39:40;;;;;;;3.33;3.03;;;27.30;49.80;27.90;99685.00;;;;5012003;28;20521;-45
2022/08/15 08:42:39;;;;;;;4.28;3.35;;;27.20;49.70;27.90;99684.00;;;;5026128;28;20178;-45
2022/08/15 08:45:27;;;;;;;5.70;3.40;;;27.20;49.80;27.90;99680.00;;;;5027759;28;20186;-45
2022/08/15 08:48:34;;;;;;;7.47;3.45;;;27.20;49.70;27.90;99684.00;;;;5030184;28;20230;-45
2022/08/15 08:51:15;;;;;;;4.65;2.95;;;27.20;49.80;27.90;99661.00;;;;5024427;28;20182;-46
2022/08/15 08:54:03;;;;;;;3.17;2.97;;;27.20;50.10;27.90;99683.00;;;;5049943;28;20183;-44
2022/08/15 08:56:34;;;;;;;4.63;3.20;;;27.30;49.50;28.00;99683.00;;;;4996868;28;20199;-45
2022/08/15 08:59:48;;;;;;;8.00;3.90;;;27.40;49.30;28.00;99678.00;;;;5027763;28;20178;-44
2022/08/15 09:02:27;;;;;;;7.75;3.90;;;27.40;49.60;28.00;99677.00;;;;5025658;28;20611;-45
2022/08/15 09:05:01;;;;;;;7.75;4.07;;;27.50;49.30;28.00;99673.00;;;;5028011;28;20673;-45
2022/08/15 09:07:31;;;;;;;7.47;3.60;;;27.60;49.10;28.00;99669.00;;;;5011385;28;20198;-46
2022/08/15 09:09:59;;;;;;;8.00;3.95;;;27.60;49.10;28.00;99659.00;;;;5007893;28;20184;-46
2022/08/15 09:15:16;;;;;;;9.25;3.50;;;27.70;49.20;28.10;99676.00;;;;5020935;28;20653;-47
2022/08/15 09:17:44;;;;;;;6.80;3.72;;;27.70;49.00;28.10;99683.00;;;;5007745;28;20745;-45
2022/08/15 09:20:16;;;;;;;7.45;3.90;;;27.70;48.90;28.10;99679.00;;;;5024341;28;20461;-45
2022/08/15 09:22:42;;;;;;;4.72;3.30;;;27.70;48.80;28.20;99689.00;;;;5023782;28;20223;-46
2022/08/15 09:25:08;;;;;;;5.90;3.42;;;27.70;48.80;28.20;99695.00;;;;5009082;28;20172;-44
2022/08/15 09:28:04;;;;;;;7.07;3.67;;;27.70;48.70;28.20;99691.00;;;;5008554;28;20242;-45
2022/08/15 09:30:30;;;;;;;6.32;3.70;;;27.70;48.60;28.20;99698.00;;;;5021614;28;20257;-44
2022/08/15 09:33:37;;;;;;;6.55;3.75;;;27.70;48.60;28.20;99692.00;;;;5023476;28;20211;-46
2022/08/15 09:36:41;;;;;;;4.63;3.30;;;27.80;48.60;28.00;99701.00;;;;4995040;28;20623;-45
2022/08/15 09:40:18;;;;;;;6.00;3.50;;;27.70;48.40;28.20;99705.00;;;;5023493;28;20427;-47
2022/08/15 09:42:55;;;;;;;5.15;3.60;;;27.70;48.40;28.20;99703.00;;;;4974856;28;20311;-44
2022/08/15 09:45:34;;;;;;;5.15;3.33;;;27.70;48.30;28.20;99693.00;;;;5023405;28;20222;-44
2022/08/15 09:48:36;;;;;;;5.18;3.67;;;27.70;48.30;28.20;99693.00;;;;5008279;28;20195;-52
2022/08/15 09:51:12;;;;;;;6.22;3.40;;;27.70;48.30;28.20;99698.00;;;;5008517;28;20167;-44
2022/08/15 09:54:20;;;;;;;4.72;3.47;;;27.70;48.40;28.20;99697.00;;;;5023155;28;20155;-44
2022/08/15 09:56:45;;;;;;;5.43;3.35;;;27.70;48.40;28.20;99697.00;;;;5022118;28;20202;-44
2022/08/15 09:59:17;;;;;;;3.80;2.97;;;27.70;48.40;28.20;99696.00;;;;5007934;28;20254;-44
2022/08/15 10:01:44;;;;;;;5.30;3.50;;;27.70;48.40;28.30;99692.00;;;;5025010;28;20163;-46
2022/08/15 10:04:12;;;;;;;4.35;3.00;;;27.70;48.30;28.30;99692.00;;;;5029292;28;20175;-44
2022/08/15 10:07:13;;;;;;;4.45;3.20;;;27.70;48.30;28.30;99696.00;;;;5025095;28;20242;-47
2022/08/15 10:10:04;;;;;;;4.40;3.40;;;27.70;48.30;28.30;99688.00;;;;4986652;28;20262;-44
2022/08/15 10:12:31;;;;;;;4.55;3.10;;;27.70;48.30;28.30;99682.00;;;;5020078;28;20211;-46
2022/08/15 10:15:02;;;;;;;3.30;3.00;;;27.70;48.30;28.30;99694.00;;;;5008138;28;20167;-43
2022/08/15 10:17:40;;;;;;;3.30;3.00;;;27.70;48.20;28.30;99699.00;;;;5007094;28;20203;-43
2022/08/15 10:20:14;;;;;;;3.65;3.05;;;27.70;48.20;28.30;99690.00;;;;5007905;28;20144;-44
2022/08/15 10:23:00;;;;;;;3.90;3.10;;;27.70;48.20;28.30;99696.00;;;;5007872;28;20190;-45
2022/08/15 10:25:36;;;;;;;4.07;3.08;;;27.70;48.20;28.30;99710.00;;;;5007807;28;20213;-44
2022/08/15 10:28:11;;;;;;;3.40;3.00;;;27.70;48.20;28.40;99709.00;;;;5007371;28;20209;-45
2022/08/15 10:30:51;;;;;;;3.85;3.40;;;27.70;48.20;28.20;99708.00;;;;5022342;28;20159;-45
2022/08/15 10:33:32;;;;;;;3.63;3.00;;;27.80;48.20;28.40;99709.00;;;;5007619;28;20191;-45
2022/08/15 10:36:13;;;;;;;4.38;3.15;;;27.70;48.20;28.40;99712.00;;;;5007904;28;20210;-43
2022/08/15 10:39:06;;;;;;;4.82;3.38;;;27.80;48.20;28.40;99719.00;;;;5007235;28;20237;-46
2022/08/15 10:41:48;;;;;;;4.10;3.20;;;27.80;48.20;28.40;99713.00;;;;5008857;28;20326;-45
2022/08/15 10:44:29;;;;;;;3.20;2.90;;;27.80;48.20;28.40;99718.00;;;;5007048;28;20148;-45
2022/08/15 10:47:18;;;;;;;4.43;3.13;;;27.80;48.20;28.40;99719.00;;;;5006829;28;20246;-45
2022/08/15 10:49:53;;;;;;;3.25;2.95;;;27.80;48.10;28.40;99711.00;;;;5019421;28;20221;-45
2022/08/15 10:52:32;;;;;;;3.30;3.00;;;27.80;48.00;28.40;99726.00;;;;5007408;28;20166;-45
2022/08/15 10:55:22;;;;;;;4.00;2.90;;;27.80;48.00;28.50;99726.00;;;;5021464;28;20590;-47
2022/08/15 10:58:32;;;;;;;3.30;3.00;;;27.80;48.00;28.50;99722.00;;;;5020716;28;20265;-45
2022/08/15 11:01:08;;;;;;;3.13;2.67;;;27.90;48.00;28.50;99715.00;;;;5005935;28;20218;-45
2022/08/15 11:04:05;;;;;;;3.38;2.90;;;27.90;47.90;28.50;99729.00;;;;5020765;28;20759;-44
2022/08/15 11:06:34;;;;;;;5.68;3.25;;;27.90;47.90;28.30;99724.00;;;;4975115;28;20194;-47
2022/08/15 11:09:14;;;;;;;4.95;3.30;;;27.90;48.00;28.50;99733.00;;;;5001536;28;20552;-46
2022/08/15 11:12:05;;;;;;;4.05;2.88;;;27.90;48.10;28.50;99721.00;;;;5026170;28;20716;-45
2022/08/15 11:14:38;;;;;;;4.10;3.30;;;27.90;48.10;28.50;99741.00;;;;5038939;28;20197;-42
2022/08/15 11:17:05;;;;;;;3.58;2.70;;;27.90;48.20;28.50;99737.00;;;;5025670;28;20218;-48
2022/08/15 11:19:38;;;;;;;3.55;3.10;;;27.90;48.10;28.50;99734.00;;;;5025040;28;20195;-45
2022/08/15 11:22:16;;;;;;;3.30;3.00;;;27.90;48.10;28.60;99740.00;;;;5025322;28;20258;-45
2022/08/15 11:24:42;;;;;;;5.20;3.30;;;27.90;48.00;28.50;99746.00;;;;5020882;28;20168;-47
2022/08/15 11:27:21;;;;;;;4.50;3.10;;;27.80;48.70;28.50;99738.00;;;;5006398;28;20265;-46
2022/08/15 11:29:48;;;;;;;4.60;3.35;;;27.50;49.20;28.30;99735.00;;;;5006482;28;20159;-44
2022/08/15 11:32:35;;;;;;;5.05;3.50;;;26.90;51.00;28.10;99741.00;;;;5006640;28;20245;-45
2022/08/15 11:35:07;;;;;;;5.43;3.35;;;26.60;51.80;28.00;99738.00;;;;5006524;28;20199;-45